Time;durP1;ratioP1;P1;durP2;ratioP2;P2;SDS_P1;SDS_P2;PMS_P1;PMS_P2;Temp;Humidity;BMP_temperature;BMP_pressure;BME280_temperature;BME280_humidity;BME280_pressure;Samples;Min_cycle;Max_cycle;Signal;HPM_P1;HPM_P2
2022/08/08 00:00:20;;;;;;;9.57;8.57;;;;;;;18.51;76.57;93539.13;5090121;28;20036;-57
2022/08/08 00:02:49;;;;;;;9.50;7.68;;;;;;;18.52;76.50;93548.97;5089440;28;20584;-52
2022/08/08 00:05:22;;;;;;;9.82;8.82;;;;;;;18.39;77.43;93557.84;5090028;28;20123;-55
2022/08/08 00:07:54;;;;;;;12.45;8.77;;;;;;;18.46;77.00;93554.19;5091228;28;20101;-57
2022/08/08 00:10:26;;;;;;;12.32;9.05;;;;;;;18.62;77.22;93547.59;5089684;28;20035;-58
2022/08/08 00:13:30;;;;;;;10.25;8.57;;;;;;;18.66;76.33;93547.88;5090828;28;20073;-57
2022/08/08 00:16:03;;;;;;;9.77;8.75;;;;;;;18.55;76.50;93554.13;5089356;28;20051;-57
2022/08/08 00:18:47;;;;;;;11.23;8.68;;;;;;;18.32;76.78;93553.94;5089875;28;20028;-54
2022/08/08 00:21:18;;;;;;;10.70;9.35;;;;;;;18.36;76.36;93559.06;5090827;28;20031;-51
2022/08/08 00:23:49;;;;;;;13.05;9.32;;;;;;;18.15;76.49;93546.53;5089444;28;20047;-53
2022/08/08 00:26:37;;;;;;;12.10;9.18;;;;;;;18.10;76.86;93550.38;5089802;28;20031;-53
2022/08/08 00:29:35;;;;;;;14.95;9.80;;;;;;;18.20;76.38;93555.91;5089674;28;20110;-52
2022/08/08 00:32:16;;;;;;;13.65;9.52;;;;;;;18.24;76.61;93561.03;5089358;28;20038;-53
2022/08/08 00:35:17;;;;;;;10.48;8.80;;;;;;;18.29;76.20;93555.13;5090736;28;20020;-53
2022/08/08 00:38:15;;;;;;;10.00;9.00;;;;;;;18.31;75.95;93560.13;5101336;28;20111;-55
2022/08/08 00:41:15;;;;;;;13.38;8.68;;;;;;;18.13;76.55;93565.22;5111181;28;20031;-51
2022/08/08 00:44:08;;;;;;;10.27;9.13;;;;;;;18.10;76.49;93567.13;5110545;28;20093;-49
2022/08/08 00:46:55;;;;;;;9.15;7.88;;;;;;;18.02;76.33;93563.78;5111070;28;20027;-53
2022/08/08 00:49:39;;;;;;;12.35;9.43;;;;;;;17.97;76.26;93564.13;5110853;28;20042;-51
2022/08/08 00:52:22;;;;;;;13.20;8.40;;;;;;;17.89;75.92;93572.66;5111017;28;20080;-51
2022/08/08 00:55:13;;;;;;;11.13;8.23;;;;;;;17.82;76.09;93581.25;5110538;28;20031;-56
2022/08/08 00:58:22;;;;;;;12.95;8.68;;;;;;;17.82;75.35;93581.94;5109480;28;20027;-58
2022/08/08 01:01:21;;;;;;;9.68;8.02;;;;;;;17.75;75.54;93582.13;5110908;28;20024;-58
2022/08/08 01:04:24;;;;;;;9.20;8.15;;;;;;;17.76;75.84;93578.03;5093557;28;20489;-59
2022/08/08 01:07:11;;;;;;;9.45;7.80;;;;;;;17.76;75.31;93581.53;5090156;28;20040;-50
2022/08/08 01:10:00;;;;;;;9.25;7.93;;;;;;;17.73;76.44;93576.41;5090031;28;20024;-54
2022/08/08 01:13:00;;;;;;;8.38;7.55;;;;;;;17.58;76.97;93583.06;5090100;28;20081;-58
2022/08/08 01:15:34;;;;;;;12.55;9.30;;;;;;;17.49;76.78;93586.59;5089961;28;20028;-59
2022/08/08 01:18:18;;;;;;;10.75;8.20;;;;;;;17.37;77.22;93580.13;5094492;28;20028;-59
2022/08/08 01:21:21;;;;;;;9.70;8.27;;;;;;;17.35;77.54;93583.53;5094360;28;20024;-59
2022/08/08 01:24:14;;;;;;;10.27;8.32;;;;;;;17.31;77.20;93571.34;5072292;28;20036;-50
2022/08/08 01:27:06;;;;;;;9.57;8.50;;;;;;;17.34;77.28;93575.75;5093916;28;20028;-59
2022/08/08 01:29:57;;;;;;;8.52;7.43;;;;;;;17.28;77.73;93575.31;5093061;28;20493;-50
2022/08/08 01:32:40;;;;;;;10.50;8.77;;;;;;;17.08;79.04;93582.25;5093893;28;20031;-50
2022/08/08 01:35:34;;;;;;;10.68;7.95;;;;;;;17.01;79.13;93580.34;5093620;28;20020;-50
2022/08/08 01:38:18;;;;;;;8.45;7.20;;;;;;;17.03;78.54;93577.69;5094146;28;20417;-48
2022/08/08 01:41:14;;;;;;;8.25;7.20;;;;;;;16.99;79.06;93572.56;5093608;28;20024;-51
2022/08/08 01:44:13;;;;;;;9.18;8.10;;;;;;;17.12;78.26;93565.78;5093970;28;20066;-48
2022/08/08 01:46:56;;;;;;;9.02;7.82;;;;;;;17.03;78.53;93572.84;5093933;28;20043;-48
2022/08/08 01:49:52;;;;;;;9.88;7.72;;;;;;;17.03;78.14;93560.94;5093776;28;20035;-49
2022/08/08 01:52:32;;;;;;;8.70;7.80;;;;;;;17.07;78.26;93561.97;5093540;28;20028;-50
2022/08/08 01:55:11;;;;;;;10.07;8.38;;;;;;;16.93;78.74;93569.34;5093321;28;20512;-47
2022/08/08 01:58:33;;;;;;;11.00;7.00;;;;;;;16.98;78.07;93570.38;5093318;28;20500;-49
2022/08/08 02:01:10;;;;;;;11.45;7.28;;;;;;;16.92;78.10;93564.31;5066329;28;20458;-49
2022/08/08 02:03:56;;;;;;;14.13;7.72;;;;;;;16.93;77.97;93574.19;5096453;28;20092;-55
2022/08/08 02:06:27;;;;;;;8.52;7.18;;;;;;;16.92;77.06;93572.69;5093423;28;20040;-53
2022/08/08 02:09:32;;;;;;;7.90;6.90;;;;;;;16.77;77.76;93575.78;5093462;28;20050;-50
2022/08/08 02:12:00;;;;;;;8.80;7.47;;;;;;;16.79;78.10;93573.88;5104285;28;20405;-52
2022/08/08 02:14:39;;;;;;;12.73;7.73;;;;;;;16.71;77.93;93575.34;5083892;28;20024;-55
2022/08/08 02:17:25;;;;;;;9.57;8.05;;;;;;;16.84;77.60;93569.31;5101073;28;20024;-54
2022/08/08 02:19:51;;;;;;;8.25;7.28;;;;;;;16.87;78.08;93573.75;5102867;28;20115;-54
2022/08/08 02:22:32;;;;;;;8.18;7.25;;;;;;;16.87;77.25;93573.75;5104317;28;20106;-54
2022/08/08 02:25:23;;;;;;;9.10;7.50;;;;;;;16.79;77.19;93575.91;5095584;28;20024;-53
2022/08/08 02:28:12;;;;;;;8.02;6.53;;;;;;;16.86;76.31;93580.63;5091519;28;20032;-51
2022/08/08 02:30:40;;;;;;;7.57;6.65;;;;;;;16.83;76.28;93579.75;5092741;28;20032;-53
2022/08/08 02:33:13;;;;;;;8.57;7.47;;;;;;;16.78;76.99;93580.03;5097459;28;20031;-51
2022/08/08 02:35:54;;;;;;;8.93;7.20;;;;;;;16.64;77.54;93583.25;5101802;28;20472;-51
2022/08/08 02:38:32;;;;;;;9.98;8.27;;;;;;;16.68;77.79;93582.81;5102439;28;20031;-51
2022/08/08 02:41:26;;;;;;;10.43;8.93;;;;;;;16.66;78.54;93583.41;5096465;28;20024;-52
2022/08/08 02:44:08;;;;;;;9.27;8.20;;;;;;;16.56;79.27;93579.88;5096358;28;20032;-55
2022/08/08 02:46:47;;;;;;;9.15;8.15;;;;;;;16.57;78.73;93592.50;5091259;28;20099;-52
2022/08/08 02:49:31;;;;;;;10.98;7.93;;;;;;;16.43;79.05;93588.63;5092624;28;20039;-51
2022/08/08 02:52:28;;;;;;;8.50;7.57;;;;;;;16.56;78.08;93593.81;5092711;28;20413;-50
2022/08/08 02:55:05;;;;;;;9.55;7.20;;;;;;;16.61;77.49;93594.84;5092169;28;20115;-53
2022/08/08 02:57:52;;;;;;;13.40;8.32;;;;;;;16.44;78.83;93587.31;5092890;28;20039;-50
2022/08/08 03:00:55;;;;;;;10.10;8.23;;;;;;;16.47;78.78;93585.41;5092555;28;20036;-49
2022/08/08 03:03:54;;;;;;;9.23;6.82;;;;;;;16.55;77.90;93592.34;5097763;28;20016;-51
2022/08/08 03:19:37;;;;;;;11.10;8.60;;;;;;;17.09;74.78;93600.44;5106480;27;20120;-39
2022/08/08 03:22:03;;;;;;;9.15;7.70;;;;;;;16.94;74.71;93603.53;5105143;28;20035;-38
2022/08/08 03:24:28;;;;;;;11.57;8.23;;;;;;;16.72;75.90;93607.50;5105075;28;20115;-38
2022/08/08 03:27:23;;;;;;;9.98;7.90;;;;;;;16.58;76.74;93607.91;5105709;28;20120;-38
2022/08/08 03:29:52;;;;;;;8.88;7.97;;;;;;;16.47;77.22;93610.50;5102431;28;20496;-38
2022/08/08 03:35:06;;;;;;;11.48;8.25;;;;;;;16.61;77.69;93609.50;5107109;28;20034;-38
2022/08/08 03:37:35;;;;;;;9.40;7.50;;;;;;;16.51;78.20;93608.78;5107736;28;20046;-38
2022/08/08 03:40:00;;;;;;;10.50;8.43;;;;;;;16.51;78.30;93588.53;5107637;28;20047;-39
2022/08/08 03:42:26;;;;;;;12.15;8.77;;;;;;;16.55;78.39;93614.66;5106279;28;20414;-40
2022/08/08 03:44:51;;;;;;;8.32;7.05;;;;;;;16.59;77.89;93609.38;5107254;28;20031;-39
2022/08/08 03:47:21;;;;;;;13.82;8.75;;;;;;;16.51;78.13;93613.59;5107585;28;20068;-39
2022/08/08 03:49:47;;;;;;;9.82;7.78;;;;;;;16.47;78.23;93619.59;5107260;28;20513;-39
2022/08/08 03:52:14;;;;;;;10.25;8.45;;;;;;;16.36;78.77;93613.84;5107189;28;20031;-39
2022/08/08 03:54:45;;;;;;;11.88;7.68;;;;;;;16.36;78.95;93609.00;5107258;28;20028;-39
2022/08/08 03:57:14;;;;;;;10.25;8.75;;;;;;;16.43;78.73;93612.97;5107154;28;20032;-39
2022/08/08 03:59:40;;;;;;;9.90;8.30;;;;;;;16.32;79.48;93616.31;5107191;28;20020;-40
2022/08/08 04:02:18;;;;;;;10.13;7.82;;;;;;;16.36;79.54;93613.84;5107045;28;20442;-39
2022/08/08 04:04:45;;;;;;;12.38;8.80;;;;;;;16.40;79.84;93617.66;5107443;28;20412;-39
2022/08/08 04:07:10;;;;;;;8.35;7.50;;;;;;;16.52;79.70;93615.81;5107276;28;20032;-40
2022/08/08 04:09:36;;;;;;;13.02;8.85;;;;;;;16.21;79.92;93598.13;5107054;28;20522;-41
2022/08/08 04:12:02;;;;;;;8.88;7.50;;;;;;;16.46;79.57;93626.47;5106939;28;20035;-40
2022/08/08 04:14:28;;;;;;;9.88;8.10;;;;;;;16.59;79.97;93620.50;5106033;28;20055;-40
2022/08/08 04:16:54;;;;;;;10.80;7.95;;;;;;;16.45;79.61;93597.16;5106561;28;20020;-40
2022/08/08 04:19:20;;;;;;;12.27;7.57;;;;;;;16.52;79.71;93609.50;5096372;28;20097;-40
2022/08/08 04:21:45;;;;;;;10.18;8.00;;;;;;;16.67;80.04;93615.53;5093542;28;20488;-40
2022/08/08 04:24:11;;;;;;;10.27;7.85;;;;;;;16.76;79.66;93616.88;5093379;28;20024;-38
2022/08/08 04:26:36;;;;;;;10.65;9.55;;;;;;;16.76;79.46;93618.94;5092882;28;20481;-38
2022/08/08 04:29:02;;;;;;;10.55;9.35;;;;;;;16.48;80.43;93595.25;5091826;28;20028;-38
2022/08/08 04:31:27;;;;;;;9.13;8.13;;;;;;;16.67;80.96;93623.19;5093284;28;20027;-38
2022/08/08 04:33:53;;;;;;;9.60;8.43;;;;;;;16.67;81.67;93620.41;5092858;28;20023;-38
2022/08/08 04:36:18;;;;;;;14.27;9.35;;;;;;;16.76;81.57;93627.31;5093229;28;20028;-38
2022/08/08 04:38:44;;;;;;;10.27;8.32;;;;;;;16.82;81.96;93627.75;5093069;28;20507;-38
2022/08/08 04:41:09;;;;;;;9.82;8.43;;;;;;;16.85;81.64;93610.56;5093150;28;20554;-38
2022/08/08 04:43:35;;;;;;;21.05;9.93;;;;;;;16.98;81.78;93634.53;5091531;28;20554;-39
2022/08/08 04:46:00;;;;;;;15.10;9.07;;;;;;;17.02;82.15;93629.94;5092994;28;20061;-38
2022/08/08 04:48:26;;;;;;;15.45;8.80;;;;;;;17.12;81.69;93636.28;5092530;28;20032;-39
2022/08/08 04:50:52;;;;;;;17.23;15.57;;;;;;;17.05;82.36;93614.84;5092800;28;20545;-39
2022/08/08 04:53:17;;;;;;;17.27;9.05;;;;;;;17.25;82.11;93643.47;5092865;28;20024;-39
2022/08/08 04:55:43;;;;;;;19.02;17.27;;;;;;;17.25;83.06;93632.31;5092403;28;20351;-38
2022/08/08 04:58:12;;;;;;;10.55;8.75;;;;;;;17.36;82.62;93631.72;5092424;28;20103;-38
2022/08/08 05:00:39;;;;;;;10.20;8.93;;;;;;;17.42;83.08;93632.13;5092394;28;20039;-39
2022/08/08 05:03:05;;;;;;;12.18;9.15;;;;;;;17.48;83.67;93638.16;5092659;28;20555;-39
2022/08/08 05:05:30;;;;;;;11.18;9.18;;;;;;;17.60;85.01;93644.66;5092642;28;20106;-38
2022/08/08 05:07:56;;;;;;;11.02;9.80;;;;;;;17.76;85.01;93640.19;5092567;28;20028;-39
2022/08/08 05:10:21;;;;;;;13.88;9.40;;;;;;;17.74;85.02;93642.09;5092214;28;20080;-38
2022/08/08 05:12:47;;;;;;;11.50;9.43;;;;;;;17.88;84.75;93640.31;5092589;28;20031;-39
2022/08/08 05:15:12;;;;;;;10.27;8.60;;;;;;;17.96;85.17;93646.47;5091815;28;20504;-38
2022/08/08 05:17:38;;;;;;;10.18;8.63;;;;;;;18.08;84.69;93645.22;5091834;28;20040;-39
2022/08/08 05:20:04;;;;;;;11.27;9.38;;;;;;;18.09;84.94;93651.56;5092302;28;20073;-39
2022/08/08 05:22:29;;;;;;;11.93;10.25;;;;;;;18.25;85.44;93646.38;5092327;28;20031;-38
2022/08/08 05:24:56;;;;;;;10.73;9.63;;;;;;;18.29;86.27;93636.19;5092005;28;20024;-38
2022/08/08 05:27:22;;;;;;;14.35;9.93;;;;;;;18.43;86.24;93653.91;5091808;28;20036;-38
2022/08/08 05:29:47;;;;;;;14.52;9.20;;;;;;;18.48;86.19;93652.16;5089485;28;20036;-37
2022/08/08 05:32:13;;;;;;;13.80;11.65;;;;;;;18.58;86.07;93652.88;5088419;28;20037;-38
2022/08/08 05:34:46;;;;;;;20.30;12.63;;;;;;;18.66;86.39;93647.81;5087797;28;20099;-38
2022/08/08 05:37:22;;;;;;;11.95;10.60;;;;;;;18.76;86.30;93654.81;5086014;28;20024;-38
2022/08/08 05:39:53;;;;;;;13.60;9.32;;;;;;;18.86;85.93;93652.69;5088607;28;20020;-37
2022/08/08 05:42:39;;;;;;;9.85;8.85;;;;;;;18.97;86.01;93648.50;5090517;28;20604;-38
2022/08/08 05:45:05;;;;;;;13.02;9.30;;;;;;;19.05;84.87;93657.44;5087783;28;20028;-38
2022/08/08 05:47:32;;;;;;;10.23;9.13;;;;;;;19.18;84.74;93653.34;5088943;28;20026;-38
2022/08/08 05:49:57;;;;;;;10.23;8.75;;;;;;;19.29;84.56;93655.47;5096590;28;20074;-38
2022/08/08 05:52:23;;;;;;;10.55;8.60;;;;;;;19.44;83.93;93664.22;5090285;28;20047;-38
2022/08/08 05:54:49;;;;;;;9.88;8.77;;;;;;;19.49;84.10;93663.13;5086576;28;20354;-37
2022/08/08 05:57:15;;;;;;;10.40;8.73;;;;;;;19.57;82.09;93666.47;5088164;28;20028;-37
2022/08/08 05:59:42;;;;;;;12.35;9.15;;;;;;;19.61;81.71;93658.34;5087633;28;20028;-38
2022/08/08 06:05:28;;;;;;;8.95;7.80;;;;;;;20.04;80.66;93656.13;5060702;28;20099;-37
2022/08/08 06:07:53;;;;;;;8.88;7.45;;;;;;;20.04;80.65;93664.53;5089683;28;20059;-37
2022/08/08 06:10:19;;;;;;;8.95;8.05;;;;;;;20.19;81.00;93657.72;5088454;28;20052;-37
2022/08/08 06:12:46;;;;;;;13.65;7.60;;;;;;;20.45;79.88;93662.19;5089376;28;20050;-38
2022/08/08 06:15:12;;;;;;;7.80;6.78;;;;;;;20.52;78.65;93660.47;5089215;28;20016;-37
2022/08/08 06:17:39;;;;;;;7.78;6.97;;;;;;;20.68;77.08;93661.47;5087829;28;20597;-37
2022/08/08 06:20:14;;;;;;;8.32;7.25;;;;;;;20.77;77.05;93661.31;5089569;28;20499;-37
2022/08/08 06:22:39;;;;;;;9.05;7.50;;;;;;;20.75;77.61;93655.59;5082088;28;20406;-37
2022/08/08 06:25:06;;;;;;;8.38;6.82;;;;;;;20.86;74.32;93662.53;5089421;28;20020;-37
2022/08/08 06:27:46;;;;;;;7.07;6.38;;;;;;;20.98;76.85;93666.81;5089314;28;20542;-37
2022/08/08 06:30:13;;;;;;;7.55;6.45;;;;;;;20.98;73.90;93666.06;5089636;28;20028;-37
2022/08/08 06:32:59;;;;;;;7.22;6.18;;;;;;;21.10;75.36;93667.53;5086686;28;20027;-37
2022/08/08 06:35:24;;;;;;;8.52;6.90;;;;;;;21.24;74.93;93664.09;5087698;28;20034;-37
2022/08/08 06:37:51;;;;;;;8.65;6.70;;;;;;;21.40;72.45;93667.81;5089620;28;20023;-37
2022/08/08 06:40:18;;;;;;;7.65;6.03;;;;;;;21.54;70.15;93663.03;5086878;28;20020;-37
2022/08/08 06:43:04;;;;;;;6.57;5.82;;;;;;;21.64;69.27;93672.00;5090284;28;20520;-36
2022/08/08 06:45:36;;;;;;;8.82;6.45;;;;;;;21.76;71.55;93661.47;5089334;28;20028;-37
2022/08/08 06:48:03;;;;;;;8.77;6.68;;;;;;;21.86;70.58;93667.66;5090701;28;20050;-37
2022/08/08 06:50:31;;;;;;;6.78;5.80;;;;;;;21.97;70.47;93660.53;5087114;28;20485;-39
2022/08/08 06:53:01;;;;;;;7.00;5.78;;;;;;;22.09;69.94;93664.72;5079424;28;20025;-37
2022/08/08 06:55:27;;;;;;;8.15;6.20;;;;;;;22.09;69.70;93669.66;5070591;28;20455;-38
2022/08/08 06:57:53;;;;;;;8.30;6.10;;;;;;;22.11;68.73;93664.84;5079693;28;20410;-38
2022/08/08 07:00:18;;;;;;;7.03;6.15;;;;;;;22.29;68.86;93665.84;5083413;28;20040;-39
2022/08/08 07:02:57;;;;;;;7.20;5.72;;;;;;;22.54;65.67;93662.25;5090272;28;20031;-39
2022/08/08 07:05:25;;;;;;;6.70;6.07;;;;;;;22.60;65.73;93663.34;5081528;28;20099;-38
2022/08/08 07:07:51;;;;;;;6.28;5.20;;;;;;;22.78;62.14;93669.19;5076187;28;20477;-38
2022/08/08 07:10:21;;;;;;;5.85;5.00;;;;;;;22.89;64.25;93676.06;5089761;28;20112;-38
2022/08/08 07:12:52;;;;;;;7.15;5.50;;;;;;;23.00;62.12;93672.44;5089038;28;20554;-39
2022/08/08 07:15:25;;;;;;;8.27;4.78;;;;;;;23.19;61.37;93675.56;5089065;28;20089;-38
2022/08/08 07:17:51;;;;;;;6.55;5.05;;;;;;;23.09;60.97;93643.31;5088625;28;20038;-38
2022/08/08 07:20:23;;;;;;;5.13;4.55;;;;;;;23.28;59.10;93668.94;5090092;28;20483;-39
2022/08/08 07:23:02;;;;;;;5.78;4.82;;;;;;;23.46;58.63;93671.97;5088723;28;20037;-39
2022/08/08 07:25:33;;;;;;;4.88;4.38;;;;;;;23.52;56.16;93677.91;5089234;28;20093;-39
2022/08/08 07:28:21;;;;;;;7.72;4.50;;;;;;;23.73;55.34;93676.84;5088075;28;20032;-38
2022/08/08 07:30:47;;;;;;;5.17;4.10;;;;;;;23.99;53.83;93678.09;5088256;28;20119;-38
2022/08/08 07:33:14;;;;;;;5.35;3.70;;;;;;;24.26;54.04;93680.09;5087456;28;20123;-38
2022/08/08 07:35:40;;;;;;;4.38;3.80;;;;;;;24.25;53.20;93679.38;5087330;28;20485;-38
2022/08/08 07:38:06;;;;;;;6.90;4.05;;;;;;;24.30;52.42;93677.50;5087018;28;20441;-38
2022/08/08 07:40:32;;;;;;;5.50;3.85;;;;;;;24.43;54.58;93677.41;5103721;28;20340;-38
2022/08/08 07:43:00;;;;;;;6.05;4.00;;;;;;;24.53;52.64;93683.53;5087254;28;20028;-38
2022/08/08 07:45:26;;;;;;;8.70;4.57;;;;;;;24.46;54.76;93686.69;5085753;28;20028;-38
2022/08/08 07:47:53;;;;;;;5.15;4.53;;;;;;;24.25;56.25;93684.28;5084971;28;20657;-38
2022/08/08 07:50:19;;;;;;;4.15;3.63;;;;;;;24.22;53.40;93694.75;5084494;28;20028;-38
2022/08/08 07:52:50;;;;;;;5.82;4.75;;;;;;;24.22;59.90;93691.94;5085310;28;20034;-38
2022/08/08 07:55:23;;;;;;;3.38;2.60;;;;;;;24.01;49.22;93692.31;5105218;28;20449;-38
2022/08/08 07:58:05;;;;;;;3.40;3.00;;;;;;;23.94;49.53;93694.09;5090676;28;20039;-39
2022/08/08 08:00:40;;;;;;;3.60;2.67;;;;;;;24.18;48.98;93685.38;5106759;28;20493;-39
2022/08/08 08:03:09;;;;;;;3.05;2.75;;;;;;;25.14;47.36;93687.00;5091047;28;20050;-39
2022/08/08 08:05:43;;;;;;;4.35;2.28;;;;;;;26.01;45.05;93674.41;5091382;28;20039;-39
2022/08/08 08:08:19;;;;;;;2.90;2.60;;;;;;;26.35;43.48;93677.19;5092989;28;20020;-40
2022/08/08 08:10:50;;;;;;;4.28;2.70;;;;;;;26.25;43.23;93671.84;5093376;28;20107;-39
2022/08/08 08:13:36;;;;;;;3.70;2.58;;;;;;;26.16;43.30;93679.31;5093352;28;20561;-39
2022/08/08 08:16:05;;;;;;;3.38;2.88;;;;;;;25.99;44.87;93665.16;5062963;28;20123;-38
2022/08/08 08:18:51;;;;;;;3.72;2.10;;;;;;;25.67;42.39;93673.03;5091957;28;20084;-38
2022/08/08 08:21:18;;;;;;;8.45;2.30;;;;;;;25.49;44.21;93683.59;5092802;28;20509;-38
2022/08/08 08:23:43;;;;;;;4.63;2.42;;;;;;;25.19;42.77;93674.50;5091934;28;20489;-39
2022/08/08 08:26:10;;;;;;;5.50;2.50;;;;;;;25.12;45.14;93677.69;5093410;28;20024;-38
2022/08/08 08:28:35;;;;;;;3.33;2.70;;;;;;;25.03;46.74;93692.84;5092935;28;20505;-38
2022/08/08 08:31:04;;;;;;;4.85;3.15;;;;;;;24.87;47.36;93680.81;5093024;28;20028;-38
2022/08/08 08:33:30;;;;;;;;;;;;;;;25.01;49.18;93670.88;5093535;28;20501;-38
2022/08/08 08:35:56;;;;;;;3.15;2.85;;;;;;;25.67;48.64;93660.97;5092982;28;20395;-38
2022/08/08 08:38:21;;;;;;;3.95;3.13;;;;;;;26.00;42.60;93669.41;5092865;28;20138;-39
2022/08/08 08:40:47;;;;;;;6.63;2.83;;;;;;;26.11;43.53;93657.16;5092823;28;20031;-39
2022/08/08 08:43:13;;;;;;;3.13;2.67;;;;;;;26.16;44.94;93670.81;5091588;28;20030;-38
2022/08/08 08:45:39;;;;;;;3.63;2.47;;;;;;;26.43;42.66;93657.69;5108569;28;20023;-39
2022/08/08 08:48:04;;;;;;;7.90;2.55;;;;;;;26.46;41.00;93657.13;5108380;28;20059;-40
2022/08/08 08:50:32;;;;;;;5.68;2.63;;;;;;;26.29;38.39;93660.72;5091500;28;20035;-39
2022/08/08 08:52:58;;;;;;;2.57;2.27;;;;;;;26.15;40.43;93660.16;5092960;28;20417;-39
2022/08/08 08:55:24;;;;;;;2.28;2.08;;;;;;;26.05;39.42;93662.56;5092822;28;20415;-39
2022/08/08 08:57:51;;;;;;;2.72;2.15;;;;;;;26.17;38.24;93663.06;5089917;28;20028;-39
2022/08/08 09:00:17;;;;;;;4.78;2.00;;;;;;;26.78;37.79;93652.72;5092723;28;20031;-40
2022/08/08 09:02:43;;;;;;;1.67;1.55;;;;;;;27.91;37.24;93645.34;5091510;28;20432;-39
2022/08/08 09:05:09;;;;;;;4.63;2.08;;;;;;;28.90;34.57;93645.59;5092428;28;20100;-40
2022/08/08 09:07:35;;;;;;;5.88;2.08;;;;;;;29.52;33.82;93652.31;5091354;28;20513;-41
2022/08/08 09:10:03;;;;;;;2.55;1.73;;;;;;;29.77;32.30;93640.94;5092052;28;20020;-40
2022/08/08 09:12:30;;;;;;;3.00;2.13;;;;;;;29.06;32.62;93641.06;5092196;28;20054;-40
2022/08/08 09:14:57;;;;;;;4.00;2.30;;;;;;;29.28;32.88;93641.03;5092062;28;20481;-40
2022/08/08 09:17:25;;;;;;;5.90;2.50;;;;;;;29.22;34.15;93635.88;5091658;28;20113;-40
2022/08/08 09:19:55;;;;;;;;;;;;;;;28.92;33.81;93646.38;5092946;28;20479;-39
2022/08/08 09:22:21;;;;;;;3.78;2.03;;;;;;;28.47;34.41;93658.50;5091938;28;19908;-40
2022/08/08 09:24:49;;;;;;;2.83;2.40;;;;;;;27.95;34.82;93644.72;5092263;28;20065;-40
2022/08/08 09:27:16;;;;;;;2.45;2.25;;;;;;;27.82;35.70;93635.09;5092109;28;20051;-40
2022/08/08 09:30:01;;;;;;;3.20;2.45;;;;;;;28.56;36.17;93641.72;5091919;28;20480;-41
2022/08/08 09:32:49;;;;;;;4.22;2.80;;;;;;;29.23;33.27;93636.59;5091780;28;20035;-40
2022/08/08 09:35:19;;;;;;;4.38;2.28;;;;;;;29.27;33.46;93638.84;5091771;28;20032;-40
2022/08/08 09:37:49;;;;;;;2.25;2.05;;;;;;;29.02;31.78;93640.25;5092074;28;20028;-40
2022/08/08 09:40:23;;;;;;;3.38;2.20;;;;;;;28.50;30.83;93650.78;5091662;28;20039;-40
2022/08/08 09:43:07;;;;;;;1.67;1.38;;;;;;;28.41;30.15;93646.94;5091624;28;20045;-40
2022/08/08 09:45:40;;;;;;;2.40;1.50;;;;;;;28.54;29.56;93640.25;5091549;28;20058;-40
2022/08/08 09:48:05;;;;;;;2.40;1.23;;;;;;;29.23;28.45;93633.75;5091679;28;20032;-40
2022/08/08 09:50:31;;;;;;;3.75;1.55;;;;;;;29.69;28.09;93603.69;5107245;28;20511;-40
2022/08/08 09:52:57;;;;;;;5.15;1.38;;;;;;;30.31;28.45;93618.78;5091703;28;20090;-40
2022/08/08 09:55:24;;;;;;;3.45;1.83;;;;;;;31.33;25.09;93613.81;5091599;28;20511;-40
2022/08/08 09:57:56;;;;;;;3.50;1.88;;;;;;;31.82;25.56;93606.88;5091399;28;20516;-40
2022/08/08 10:00:21;;;;;;;2.22;1.55;;;;;;;32.36;25.65;93618.50;5090181;28;20085;-40
2022/08/08 10:02:50;;;;;;;2.50;2.20;;;;;;;31.89;27.78;93623.44;5107037;28;20031;-40
2022/08/08 10:05:28;;;;;;;5.80;2.45;;;;;;;31.09;30.91;93621.91;5091486;28;20161;-40
2022/08/08 10:07:55;;;;;;;3.10;1.73;;;;;;;31.06;29.10;93615.44;5091107;28;20035;-40
2022/08/08 10:10:31;;;;;;;2.47;2.22;;;;;;;30.64;29.24;93614.53;5091108;28;20062;-41
2022/08/08 10:12:57;;;;;;;6.43;2.17;;;;;;;30.94;30.54;93609.50;5090101;28;20111;-40
2022/08/08 10:15:25;;;;;;;6.22;2.42;;;;;;;31.96;28.80;93602.19;5077484;28;20031;-42
2022/08/08 10:17:55;;;;;;;1.88;1.77;;;;;;;32.80;26.66;93599.88;5087360;28;20421;-40
2022/08/08 10:20:22;;;;;;;4.20;1.80;;;;;;;32.81;26.53;93589.88;5086689;28;20107;-38
2022/08/08 10:22:59;;;;;;;2.00;1.63;;;;;;;32.72;25.63;93588.34;5089268;28;20031;-37
2022/08/08 10:25:25;;;;;;;3.75;2.10;;;;;;;31.90;27.20;93593.47;5085891;28;20039;-37
2022/08/08 10:27:52;;;;;;;4.30;2.10;;;;;;;31.70;26.64;93598.84;5085480;28;20448;-37
2022/08/08 10:30:19;;;;;;;2.20;1.60;;;;;;;31.87;26.64;93603.41;5089846;28;20031;-37
2022/08/08 10:32:51;;;;;;;3.00;1.65;;;;;;;31.15;27.43;93599.94;5087153;28;20024;-36
2022/08/08 10:35:19;;;;;;;2.45;2.03;;;;;;;30.72;28.11;93589.03;5089666;28;20028;-35
2022/08/08 10:38:13;;;;;;;3.35;1.80;;;;;;;30.07;28.29;93588.97;5085731;28;20119;-39
2022/08/08 10:40:39;;;;;;;4.07;1.90;;;;;;;30.86;29.11;93600.03;5087383;28;20135;-39
2022/08/08 10:43:05;;;;;;;5.32;1.48;;;;;;;30.84;27.08;93591.44;5085202;28;20653;-40
2022/08/08 10:45:51;;;;;;;4.40;2.08;;;;;;;30.10;28.86;93590.47;5089617;28;20016;-40
2022/08/08 10:48:16;;;;;;;6.35;1.95;;;;;;;29.62;29.36;93598.53;5088158;28;20046;-40
2022/08/08 10:50:42;;;;;;;2.65;1.80;;;;;;;29.44;29.87;93592.34;5089521;28;20012;-39
2022/08/08 10:53:10;;;;;;;1.45;1.35;;;;;;;30.43;23.76;93587.69;5087719;28;20020;-40
2022/08/08 10:55:36;;;;;;;2.30;1.23;;;;;;;30.50;25.07;93577.16;5087457;28;20027;-41
2022/08/08 10:58:04;;;;;;;5.57;1.85;;;;;;;30.40;28.10;93579.78;5087519;28;20016;-39
2022/08/08 11:00:30;;;;;;;1.70;1.60;;;;;;;29.92;27.39;93593.59;5087593;28;20484;-41
2022/08/08 11:03:09;;;;;;;2.58;1.70;;;;;;;29.48;27.55;93593.19;5087389;28;20032;-41
2022/08/08 11:05:46;;;;;;;6.70;1.83;;;;;;;29.67;27.99;93580.88;5086048;28;20035;-41
2022/08/08 11:08:27;;;;;;;4.68;2.00;;;;;;;29.69;29.05;93580.91;5085198;28;20035;-39
2022/08/08 11:11:04;;;;;;;7.78;1.80;;;;;;;29.47;29.64;93586.06;5085601;28;20028;-39
2022/08/08 11:13:43;;;;;;;3.88;1.90;;;;;;;29.15;28.55;93594.41;5085013;28;20761;-40
2022/08/08 11:16:16;;;;;;;4.47;1.50;;;;;;;29.22;27.05;93596.06;5081910;28;20030;-40
2022/08/08 11:18:43;;;;;;;3.38;1.45;;;;;;;29.40;26.98;93573.06;5075690;28;20076;-39
2022/08/08 11:21:09;;;;;;;4.32;1.83;;;;;;;29.23;25.63;93591.84;5087036;28;20023;-40
2022/08/08 11:23:35;;;;;;;2.47;1.80;;;;;;;29.29;27.54;93585.56;5087721;28;20028;-40
2022/08/08 11:26:04;;;;;;;1.88;1.40;;;;;;;30.16;25.28;93567.81;5085531;28;20118;-40
2022/08/08 11:28:34;;;;;;;3.92;1.83;;;;;;;30.98;23.84;93571.78;5087133;28;20085;-40
2022/08/08 11:31:01;;;;;;;12.77;7.38;;;;;;;31.76;23.54;93572.53;5090098;28;20028;-41
2022/08/08 11:33:27;;;;;;;6.43;4.30;;;;;;;31.67;23.57;93579.50;5088166;28;20108;-40
2022/08/08 11:35:55;;;;;;;4.65;1.83;;;;;;;31.06;23.00;93561.25;5089082;28;20024;-39
2022/08/08 11:38:21;;;;;;;6.20;1.77;;;;;;;31.13;25.01;93577.06;5088899;28;20465;-40
2022/08/08 11:40:48;;;;;;;4.78;1.67;;;;;;;31.39;23.78;93566.16;5088952;28;20097;-38
2022/08/08 11:43:15;;;;;;;5.15;4.28;;;;;;;31.33;22.27;93563.19;5089169;28;20469;-41
2022/08/08 11:45:41;;;;;;;5.05;3.30;;;;;;;30.94;23.51;93563.13;5088631;28;20032;-40
2022/08/08 11:48:07;;;;;;;4.00;2.90;;;;;;;30.39;23.35;93567.66;5089789;28;20519;-39
2022/08/08 11:50:32;;;;;;;2.92;2.30;;;;;;;29.98;24.38;93577.38;5089434;28;20031;-39
2022/08/08 11:52:58;;;;;;;5.43;2.65;;;;;;;29.59;24.46;93577.81;5090472;28;20030;-40
2022/08/08 11:55:27;;;;;;;12.13;8.35;;;;;;;29.50;25.29;93579.00;5090263;28;20023;-39
2022/08/08 11:58:11;;;;;;;6.03;4.70;;;;;;;29.22;24.42;93576.16;5088098;28;20465;-40
2022/08/08 12:00:49;;;;;;;21.50;14.68;;;;;;;29.22;26.76;93573.31;5088410;28;20036;-40
2022/08/08 12:03:18;;;;;;;8.13;5.05;;;;;;;29.42;26.86;93578.81;5087557;28;20089;-39
2022/08/08 12:05:45;;;;;;;3.65;2.22;;;;;;;29.57;25.63;93569.22;5089995;28;20405;-40
2022/08/08 12:08:14;;;;;;;2.80;2.20;;;;;;;29.54;25.87;93567.72;5084975;28;20115;-39
2022/08/08 12:10:47;;;;;;;10.35;6.40;;;;;;;29.24;26.70;93566.94;5089763;28;20032;-39
2022/08/08 12:13:14;;;;;;;6.40;3.08;;;;;;;28.91;27.90;93576.69;5089170;28;20061;-41
2022/08/08 12:15:50;;;;;;;2.08;1.90;;;;;;;29.10;26.68;93575.09;5089953;28;20531;-38
2022/08/08 12:18:23;;;;;;;2.25;2.05;;;;;;;29.40;27.00;93563.81;5088666;28;20043;-39